createdAt,value
2024-03-30T00:00:21.332Z,100.00
2024-03-30T00:03:13.575Z,100.00
2024-03-30T00:05:44.699Z,100.00
2024-03-30T00:08:16.477Z,100.00
2024-03-30T00:10:47.632Z,100.00
2024-03-30T00:13:18.873Z,100.00
2024-03-30T00:15:50.054Z,100.00
2024-03-30T00:18:21.775Z,100.00
2024-03-30T00:20:53.115Z,100.00
2024-03-30T00:23:24.690Z,100.00
2024-03-30T00:25:56.585Z,100.00
2024-03-30T00:28:28.413Z,100.00
2024-03-30T00:30:59.481Z,100.00
2024-03-30T00:33:30.854Z,100.00
2024-03-30T00:36:01.973Z,100.00
2024-03-30T00:38:33.307Z,100.00
2024-03-30T00:41:04.862Z,100.00
2024-03-30T00:43:36.082Z,100.00
2024-03-30T00:46:07.412Z,100.00
2024-03-30T00:48:38.583Z,100.00
2024-03-30T00:51:09.658Z,100.00
2024-03-30T00:53:41.183Z,100.00
2024-03-30T00:56:12.459Z,100.00
2024-03-30T00:58:43.649Z,100.00
2024-03-30T01:01:17.996Z,100.00
2024-03-30T01:03:49.367Z,100.00
2024-03-30T01:06:22.007Z,100.00
2024-03-30T01:08:54.136Z,100.00
2024-03-30T01:11:26.875Z,100.00
2024-03-30T01:13:59.361Z,100.00
2024-03-30T01:16:31.706Z,100.00
2024-03-30T01:19:04.708Z,100.00
2024-03-30T01:21:37.433Z,100.00
2024-03-30T01:24:10.622Z,100.00
2024-03-30T01:26:47.037Z,100.00
2024-03-30T01:29:22.422Z,100.00
2024-03-30T01:31:54.972Z,100.00
2024-03-30T01:34:27.671Z,100.00
2024-03-30T01:36:58.859Z,100.00
2024-03-30T01:39:30.254Z,100.00
2024-03-30T01:42:01.407Z,100.00
2024-03-30T01:44:32.743Z,100.00
2024-03-30T01:47:04.802Z,100.00
2024-03-30T01:49:36.168Z,100.00
2024-03-30T01:52:07.893Z,100.00
2024-03-30T01:54:39.511Z,100.00
2024-03-30T01:57:11.028Z,100.00
2024-03-30T01:59:42.804Z,100.00
2024-03-30T02:02:15.470Z,100.00
2024-03-30T02:04:47.946Z,100.00
2024-03-30T02:07:19.329Z,100.00
2024-03-30T02:09:50.863Z,100.00
2024-03-30T02:12:23.120Z,100.00
2024-03-30T02:14:54.445Z,100.00
2024-03-30T02:17:25.929Z,100.00
2024-03-30T02:19:58.707Z,100.00
2024-03-30T02:22:30.038Z,100.00
2024-03-30T02:25:01.118Z,100.00
2024-03-30T02:27:32.981Z,100.00
2024-03-30T02:30:05.698Z,100.00
2024-03-30T02:32:37.817Z,100.00
2024-03-30T02:35:09.574Z,100.00
2024-03-30T02:37:41.463Z,100.00
2024-03-30T02:40:13.520Z,100.00
2024-03-30T02:42:44.948Z,100.00
2024-03-30T02:45:16.765Z,100.00
2024-03-30T02:47:48.001Z,100.00
2024-03-30T02:50:19.228Z,100.00
2024-03-30T02:52:50.383Z,100.00
2024-03-30T02:55:21.700Z,100.00
2024-03-30T02:57:52.807Z,100.00
2024-03-30T03:00:24.114Z,100.00
2024-03-30T03:02:55.846Z,100.00
2024-03-30T03:05:27.337Z,100.00
2024-03-30T03:07:58.638Z,100.00
2024-03-30T03:10:29.862Z,100.00
2024-03-30T03:13:01.128Z,100.00
2024-03-30T03:15:32.687Z,100.00
2024-03-30T03:18:04.675Z,100.00
2024-03-30T03:20:36.336Z,100.00
2024-03-30T03:23:07.848Z,100.00
2024-03-30T03:25:39.330Z,100.00
2024-03-30T03:28:10.479Z,100.00
2024-03-30T03:30:42.852Z,100.00
2024-03-30T03:33:14.913Z,100.00
2024-03-30T03:35:46.100Z,100.00
2024-03-30T03:38:17.442Z,100.00
2024-03-30T03:40:48.757Z,100.00
2024-03-30T03:43:20.109Z,100.00
2024-03-30T03:45:51.582Z,100.00
2024-03-30T03:48:22.915Z,100.00
2024-03-30T03:50:54.406Z,100.00
2024-03-30T03:53:25.924Z,100.00
2024-03-30T03:55:57.024Z,100.00
2024-03-30T03:58:28.923Z,100.00
2024-03-30T04:01:04.269Z,100.00
2024-03-30T04:03:37.467Z,100.00
2024-03-30T04:06:13.584Z,100.00
2024-03-30T04:08:47.608Z,100.00
2024-03-30T04:11:18.843Z,100.00
2024-03-30T04:13:50.365Z,100.00
2024-03-30T04:16:21.581Z,100.00
2024-03-30T04:18:54.138Z,100.00
2024-03-30T04:21:27.456Z,100.00
2024-03-30T04:23:58.832Z,100.00
2024-03-30T04:26:30.040Z,100.00
2024-03-30T04:29:01.234Z,100.00
2024-03-30T04:31:32.628Z,100.00
2024-03-30T04:34:04.302Z,100.00
2024-03-30T04:36:35.210Z,100.00
2024-03-30T04:39:06.512Z,100.00
2024-03-30T04:41:37.643Z,100.00
2024-03-30T04:44:09.282Z,100.00
2024-03-30T04:46:40.644Z,100.00
2024-03-30T04:49:12.601Z,100.00
2024-03-30T04:51:44.267Z,100.00
2024-03-30T04:54:15.751Z,100.00
2024-03-30T04:56:47.183Z,100.00
2024-03-30T04:59:18.651Z,100.00
2024-03-30T05:01:49.732Z,100.00
2024-03-30T05:04:21.149Z,100.00
2024-03-30T05:06:52.367Z,100.00
2024-03-30T05:09:23.549Z,100.00
2024-03-30T05:11:54.910Z,100.00
2024-03-30T05:14:26.151Z,100.00
2024-03-30T05:16:57.462Z,100.00
2024-03-30T05:19:46.433Z,100.00
2024-03-30T05:22:17.904Z,100.00
2024-03-30T05:24:49.114Z,100.00
2024-03-30T05:27:20.465Z,100.00
2024-03-30T05:29:51.727Z,100.00
2024-03-30T05:32:22.865Z,100.00
2024-03-30T05:34:54.420Z,100.00
2024-03-30T05:37:25.582Z,100.00
2024-03-30T05:39:57.043Z,100.00
2024-03-30T05:42:28.168Z,100.00
2024-03-30T05:44:59.730Z,100.00
2024-03-30T05:47:31.124Z,100.00
2024-03-30T05:50:02.910Z,100.00
2024-03-30T05:52:34.028Z,100.00
2024-03-30T05:55:06.165Z,100.00
2024-03-30T05:57:37.321Z,100.00
2024-03-30T06:00:12.111Z,100.00
2024-03-30T06:02:47.049Z,100.00
2024-03-30T06:05:18.596Z,100.00
2024-03-30T06:07:49.848Z,100.00
2024-03-30T06:10:21.070Z,100.00
2024-03-30T06:12:52.468Z,100.00
2024-03-30T06:15:23.648Z,100.00
2024-03-30T06:17:54.986Z,100.00
2024-03-30T06:20:26.385Z,100.00
2024-03-30T06:22:57.570Z,100.00
2024-03-30T06:25:29.085Z,100.00
2024-03-30T06:28:00.367Z,100.00
2024-03-30T06:30:31.470Z,100.00
2024-03-30T06:33:02.806Z,100.00
2024-03-30T06:35:36.017Z,100.00
2024-03-30T06:38:07.542Z,100.00
2024-03-30T06:40:56.595Z,100.00
2024-03-30T06:43:47.574Z,100.00
2024-03-30T06:46:20.577Z,100.00
2024-03-30T06:48:51.711Z,100.00
2024-03-30T06:51:23.470Z,100.00
2024-03-30T06:53:54.681Z,100.00
2024-03-30T06:56:26.004Z,100.00
2024-03-30T06:58:57.588Z,100.00
2024-03-30T07:01:28.962Z,100.00
2024-03-30T07:04:00.687Z,100.00
2024-03-30T07:06:31.986Z,100.00
2024-03-30T07:09:03.230Z,100.00
2024-03-30T07:11:34.544Z,100.00
2024-03-30T07:14:06.092Z,100.00
2024-03-30T07:16:37.326Z,100.00
2024-03-30T07:19:08.631Z,100.00
2024-03-30T07:21:40.148Z,100.00
2024-03-30T07:24:11.362Z,100.00
2024-03-30T07:26:42.846Z,100.00
2024-03-30T07:29:14.261Z,100.00
2024-03-30T07:31:46.867Z,100.00
2024-03-30T07:34:18.332Z,100.00
2024-03-30T07:36:49.711Z,100.00
2024-03-30T07:39:21.201Z,100.00
2024-03-30T07:41:52.761Z,100.00
2024-03-30T07:44:27.332Z,100.00
2024-03-30T07:46:58.477Z,100.00
2024-03-30T07:49:29.866Z,100.00
2024-03-30T07:52:01.391Z,100.00
2024-03-30T07:54:32.810Z,100.00
2024-03-30T07:57:05.013Z,100.00
2024-03-30T07:59:36.256Z,100.00
2024-03-30T08:02:07.670Z,100.00
2024-03-30T08:04:38.809Z,100.00
2024-03-30T08:07:10.260Z,100.00
2024-03-30T08:09:41.749Z,100.00
2024-03-30T08:12:13.298Z,100.00
2024-03-30T08:14:44.580Z,100.00
2024-03-30T08:17:15.878Z,100.00
2024-03-30T08:19:47.247Z,100.00
2024-03-30T08:22:19.813Z,100.00
2024-03-30T08:24:51.260Z,100.00
2024-03-30T08:27:25.614Z,100.00
2024-03-30T08:29:58.803Z,100.00
2024-03-30T08:32:30.639Z,100.00
2024-03-30T08:35:02.141Z,100.00
2024-03-30T08:37:33.265Z,100.00
2024-03-30T08:40:04.971Z,100.00
2024-03-30T08:42:36.040Z,100.00
2024-03-30T08:45:08.415Z,100.00
2024-03-30T08:47:39.644Z,100.00
2024-03-30T08:50:11.309Z,100.00
2024-03-30T08:52:42.484Z,100.00
2024-03-30T08:55:13.896Z,100.00
2024-03-30T08:57:45.155Z,100.00
2024-03-30T09:00:17.068Z,100.00
2024-03-30T09:02:48.154Z,100.00
2024-03-30T09:05:19.612Z,99.91
2024-03-30T09:07:51.568Z,99.88
2024-03-30T09:10:23.138Z,99.35
2024-03-30T09:12:54.511Z,98.48
2024-03-30T09:15:26.650Z,97.50
2024-03-30T09:17:57.806Z,97.12
2024-03-30T09:20:29.159Z,95.53
2024-03-30T09:23:00.498Z,95.86
2024-03-30T09:25:32.045Z,95.06
2024-03-30T09:28:03.628Z,95.23
2024-03-30T09:30:34.847Z,94.67
2024-03-30T09:33:06.818Z,93.76
2024-03-30T09:35:41.662Z,93.31
2024-03-30T09:38:12.758Z,92.33
2024-03-30T09:40:49.998Z,91.40
2024-03-30T09:43:21.548Z,90.55
2024-03-30T09:45:53.480Z,89.23
2024-03-30T09:48:26.133Z,88.68
2024-03-30T09:50:58.588Z,88.76
2024-03-30T09:53:31.122Z,88.27
2024-03-30T09:56:04.889Z,87.60
2024-03-30T09:58:37.029Z,87.15
2024-03-30T10:01:10.635Z,86.13
2024-03-30T10:03:41.781Z,85.17
2024-03-30T10:06:18.320Z,84.73
2024-03-30T10:08:54.712Z,84.42
2024-03-30T10:11:30.416Z,83.72
2024-03-30T10:14:10.360Z,83.44
2024-03-30T10:16:41.719Z,82.58
2024-03-30T10:19:15.443Z,81.51
2024-03-30T10:21:47.663Z,80.27
2024-03-30T10:24:19.358Z,80.07
2024-03-30T10:26:51.547Z,77.57
2024-03-30T10:29:22.890Z,77.19
2024-03-30T10:31:54.773Z,77.71
2024-03-30T10:34:28.185Z,76.78
2024-03-30T10:37:01.336Z,75.59
2024-03-30T10:39:33.744Z,76.14
2024-03-30T10:42:04.930Z,74.95
2024-03-30T10:44:36.254Z,73.00
2024-03-30T10:47:08.511Z,72.31
2024-03-30T10:49:39.722Z,70.99
2024-03-30T10:52:14.447Z,70.55
2024-03-30T10:54:46.910Z,71.19
2024-03-30T10:57:19.230Z,71.56
2024-03-30T10:59:52.217Z,71.41
2024-03-30T11:02:25.090Z,70.72
2024-03-30T11:04:59.102Z,69.13
2024-03-30T11:07:30.748Z,70.01
2024-03-30T11:10:03.454Z,69.82
2024-03-30T11:12:35.391Z,69.15
2024-03-30T11:15:07.743Z,68.45
2024-03-30T11:17:44.325Z,67.24
2024-03-30T11:20:17.273Z,67.09
2024-03-30T11:22:54.771Z,67.40
2024-03-30T11:25:31.484Z,67.10
2024-03-30T11:28:08.785Z,67.49
2024-03-30T11:30:53.136Z,67.19
2024-03-30T11:33:31.920Z,66.64
2024-03-30T11:36:07.643Z,66.61
2024-03-30T11:38:41.551Z,66.17
2024-03-30T11:41:14.818Z,64.41
2024-03-30T11:43:54.391Z,65.08
2024-03-30T11:46:28.413Z,65.65
2024-03-30T11:49:00.238Z,64.85
2024-03-30T11:51:32.466Z,64.70
2024-03-30T11:54:19.007Z,64.56
2024-03-30T11:57:16.373Z,64.82
2024-03-30T11:59:55.194Z,64.31
2024-03-30T12:02:30.847Z,64.36
2024-03-30T12:05:06.815Z,64.20
2024-03-30T12:07:39.409Z,63.78
2024-03-30T12:10:12.140Z,63.42
2024-03-30T12:12:43.341Z,62.98
2024-03-30T12:15:16.350Z,62.13
2024-03-30T12:17:47.734Z,61.76
2024-03-30T12:20:20.412Z,60.85
2024-03-30T12:22:52.000Z,60.36
2024-03-30T12:25:25.690Z,60.40
2024-03-30T12:27:58.682Z,61.17
2024-03-30T12:30:30.539Z,60.57
2024-03-30T12:33:02.379Z,60.95
2024-03-30T12:35:33.615Z,60.58
2024-03-30T12:38:06.146Z,60.86
2024-03-30T12:40:38.118Z,60.71
2024-03-30T12:43:09.421Z,60.17
2024-03-30T12:45:41.108Z,60.03
2024-03-30T12:48:12.747Z,60.04
2024-03-30T12:50:44.305Z,59.92
2024-03-30T12:53:16.050Z,60.06
2024-03-30T12:55:47.218Z,59.89
2024-03-30T12:58:19.048Z,59.61
2024-03-30T13:00:50.416Z,58.18
2024-03-30T13:03:22.282Z,58.34
2024-03-30T13:05:53.690Z,58.09
2024-03-30T13:08:25.370Z,57.48
2024-03-30T13:10:58.484Z,57.80
2024-03-30T13:13:29.657Z,56.43
2024-03-30T13:16:02.032Z,55.96
2024-03-30T13:18:33.471Z,55.72
2024-03-30T13:21:09.621Z,55.35
2024-03-30T13:23:48.033Z,55.49
2024-03-30T13:26:19.632Z,54.49
2024-03-30T13:28:51.858Z,54.72
2024-03-30T13:31:23.209Z,54.44
2024-03-30T13:33:54.432Z,54.70
2024-03-30T13:36:25.936Z,55.23
2024-03-30T13:38:57.112Z,54.66
2024-03-30T13:41:28.402Z,54.31
2024-03-30T13:43:59.469Z,53.99
2024-03-30T13:46:30.739Z,54.02
2024-03-30T13:49:04.798Z,53.56
2024-03-30T13:51:36.065Z,53.44
2024-03-30T13:54:07.610Z,53.31
2024-03-30T13:56:38.799Z,53.12
2024-03-30T13:59:09.998Z,53.16
2024-03-30T14:01:41.654Z,52.60
2024-03-30T14:04:12.998Z,52.07
2024-03-30T14:06:44.445Z,51.93
2024-03-30T14:09:16.193Z,51.68
2024-03-30T14:11:49.330Z,51.35
2024-03-30T14:14:20.384Z,50.91
2024-03-30T14:16:52.237Z,50.87
2024-03-30T14:19:23.372Z,50.98
2024-03-30T14:21:54.415Z,51.38
2024-03-30T14:24:26.267Z,51.81
2024-03-30T14:26:57.668Z,51.61
2024-03-30T14:29:29.284Z,51.26
2024-03-30T14:32:00.473Z,51.19
2024-03-30T14:34:31.623Z,51.21
2024-03-30T14:37:12.620Z,50.96
2024-03-30T14:39:46.675Z,51.02
2024-03-30T14:42:18.027Z,51.31
2024-03-30T14:44:52.308Z,51.40
2024-03-30T14:47:23.935Z,51.67
2024-03-30T14:49:55.219Z,51.96
2024-03-30T14:52:26.618Z,51.04
2024-03-30T14:54:58.117Z,49.98
2024-03-30T14:57:29.783Z,50.25
2024-03-30T15:00:01.402Z,49.43
2024-03-30T15:02:34.437Z,49.93
2024-03-30T15:05:06.631Z,49.87
2024-03-30T15:07:37.867Z,49.92
2024-03-30T15:10:09.962Z,50.13
2024-03-30T15:12:41.147Z,50.77
2024-03-30T15:15:12.308Z,50.73
2024-03-30T15:17:43.513Z,50.99
2024-03-30T15:20:15.106Z,50.61
2024-03-30T15:22:46.553Z,50.42
2024-03-30T15:25:17.728Z,50.29
2024-03-30T15:27:49.075Z,49.91
2024-03-30T15:30:38.249Z,50.06
2024-03-30T15:33:09.544Z,50.33
2024-03-30T15:35:40.890Z,49.88
2024-03-30T15:38:12.394Z,50.07
2024-03-30T15:40:43.504Z,49.40
2024-03-30T15:43:15.314Z,49.45
2024-03-30T15:45:46.801Z,49.61
2024-03-30T15:48:18.165Z,49.46
2024-03-30T15:50:57.716Z,49.69
2024-03-30T15:53:29.557Z,50.00
2024-03-30T15:56:02.967Z,50.11
2024-03-30T15:58:35.631Z,50.19
2024-03-30T16:01:08.906Z,50.45
2024-03-30T16:03:40.256Z,50.69
2024-03-30T16:06:12.161Z,50.55
2024-03-30T16:08:43.507Z,50.61
2024-03-30T16:11:14.635Z,50.77
2024-03-30T16:13:45.763Z,50.93
2024-03-30T16:16:17.762Z,50.78
2024-03-30T16:18:48.892Z,50.89
2024-03-30T16:21:20.351Z,51.34
2024-03-30T16:23:51.491Z,51.57
2024-03-30T16:26:22.679Z,51.58
2024-03-30T16:28:53.972Z,51.82
2024-03-30T16:31:37.002Z,51.88
2024-03-30T16:34:09.297Z,52.03
2024-03-30T16:36:40.561Z,52.32
2024-03-30T16:39:18.749Z,52.75
2024-03-30T16:41:52.119Z,52.92
2024-03-30T16:44:32.175Z,53.04
2024-03-30T16:47:04.063Z,53.47
2024-03-30T16:49:35.186Z,53.96
2024-03-30T16:52:07.481Z,54.49
2024-03-30T16:54:38.690Z,54.90
2024-03-30T16:57:10.433Z,55.33
2024-03-30T16:59:41.741Z,55.71
2024-03-30T17:02:13.533Z,56.47
2024-03-30T17:04:46.164Z,57.10
2024-03-30T17:07:17.375Z,58.17
2024-03-30T17:09:49.241Z,59.06
2024-03-30T17:12:20.817Z,59.99
2024-03-30T17:14:52.085Z,60.57
2024-03-30T17:17:23.271Z,61.60
2024-03-30T17:19:54.434Z,63.27
2024-03-30T17:22:25.830Z,62.90
2024-03-30T17:24:58.465Z,63.38
2024-03-30T17:27:30.749Z,64.14
2024-03-30T17:30:01.913Z,64.87
2024-03-30T17:32:33.422Z,65.93
2024-03-30T17:35:07.416Z,66.93
2024-03-30T17:37:38.693Z,67.57
2024-03-30T17:40:12.035Z,67.89
2024-03-30T17:42:43.683Z,68.70
2024-03-30T17:45:14.969Z,69.47
2024-03-30T17:47:46.499Z,69.61
2024-03-30T17:50:17.841Z,70.51
2024-03-30T17:52:51.208Z,71.34
2024-03-30T17:55:22.501Z,72.10
2024-03-30T17:57:53.662Z,71.73
2024-03-30T18:00:26.330Z,72.59
2024-03-30T18:03:01.501Z,72.81
2024-03-30T18:05:32.842Z,73.75
2024-03-30T18:08:04.378Z,74.03
2024-03-30T18:10:35.505Z,74.73
2024-03-30T18:13:08.747Z,75.14
2024-03-30T18:15:39.922Z,75.04
2024-03-30T18:18:11.025Z,75.29
2024-03-30T18:20:44.808Z,75.59
2024-03-30T18:23:18.160Z,75.88
2024-03-30T18:25:49.236Z,76.35
2024-03-30T18:28:20.775Z,77.07
2024-03-30T18:30:51.921Z,77.52
2024-03-30T18:33:24.043Z,77.69
2024-03-30T18:35:55.448Z,78.08
2024-03-30T18:38:26.589Z,78.68
2024-03-30T18:40:58.201Z,79.42
2024-03-30T18:43:29.981Z,79.83
2024-03-30T18:46:04.613Z,80.37
2024-03-30T18:48:37.080Z,80.63
2024-03-30T18:51:10.542Z,80.92
2024-03-30T18:53:41.891Z,81.97
2024-03-30T18:56:14.243Z,82.54
2024-03-30T18:58:49.511Z,82.97
2024-03-30T19:01:21.538Z,83.20
2024-03-30T19:03:56.672Z,84.44
2024-03-30T19:06:28.027Z,84.99
2024-03-30T19:08:59.377Z,85.10
2024-03-30T19:11:30.678Z,85.77
2024-03-30T19:14:01.745Z,86.06
2024-03-30T19:16:33.049Z,86.57
2024-03-30T19:19:04.483Z,87.16
2024-03-30T19:21:35.696Z,87.77
2024-03-30T19:24:08.220Z,88.07
2024-03-30T19:26:39.396Z,88.48
2024-03-30T19:29:10.564Z,88.51
2024-03-30T19:31:41.707Z,88.58
2024-03-30T19:34:14.020Z,89.13
2024-03-30T19:36:47.819Z,89.74
2024-03-30T19:39:19.048Z,89.70
2024-03-30T19:41:51.552Z,89.92
2024-03-30T19:44:23.340Z,90.19
2024-03-30T19:46:54.498Z,90.44
2024-03-30T19:49:26.031Z,90.51
2024-03-30T19:51:57.183Z,91.06
2024-03-30T19:54:28.251Z,90.92
2024-03-30T19:56:59.316Z,90.92
2024-03-30T19:59:30.699Z,91.37
2024-03-30T20:02:02.074Z,92.17
2024-03-30T20:04:33.380Z,92.41
2024-03-30T20:07:04.547Z,93.08
2024-03-30T20:09:36.504Z,93.58
2024-03-30T20:12:08.861Z,93.89
2024-03-30T20:14:40.013Z,94.81
2024-03-30T20:17:11.274Z,94.78
2024-03-30T20:19:43.104Z,95.78
2024-03-30T20:22:14.556Z,96.38
2024-03-30T20:24:47.844Z,96.68
2024-03-30T20:27:19.312Z,96.90
2024-03-30T20:29:50.754Z,97.08
2024-03-30T20:32:24.152Z,98.42
2024-03-30T20:34:55.531Z,99.16
2024-03-30T20:37:26.675Z,99.57
2024-03-30T20:39:57.894Z,99.44
2024-03-30T20:42:29.048Z,99.75
2024-03-30T20:45:01.427Z,99.82
2024-03-30T20:47:32.553Z,100.00
2024-03-30T20:50:04.008Z,100.00
2024-03-30T20:52:35.275Z,100.00
2024-03-30T20:55:07.180Z,100.00
2024-03-30T20:57:38.674Z,100.00
2024-03-30T21:00:12.572Z,100.00
2024-03-30T21:02:43.847Z,100.00
2024-03-30T21:05:18.270Z,100.00
2024-03-30T21:07:49.867Z,100.00
2024-03-30T21:10:21.346Z,100.00
2024-03-30T21:12:53.963Z,100.00
2024-03-30T21:15:27.238Z,100.00
2024-03-30T21:18:00.358Z,100.00
2024-03-30T21:20:33.316Z,100.00
2024-03-30T21:23:04.704Z,100.00
2024-03-30T21:25:35.802Z,100.00
2024-03-30T21:28:07.264Z,100.00
2024-03-30T21:30:38.447Z,100.00
2024-03-30T21:33:09.586Z,100.00
2024-03-30T21:35:40.725Z,100.00
2024-03-30T21:38:12.155Z,100.00
2024-03-30T21:40:43.527Z,100.00
2024-03-30T21:43:15.215Z,100.00
2024-03-30T21:45:55.104Z,100.00
2024-03-30T21:48:27.286Z,100.00
2024-03-30T21:50:59.662Z,100.00
2024-03-30T21:53:30.925Z,100.00
2024-03-30T21:56:02.331Z,100.00
2024-03-30T21:58:33.689Z,100.00
2024-03-30T22:01:05.365Z,100.00
2024-03-30T22:03:36.741Z,100.00
2024-03-30T22:06:08.720Z,100.00
2024-03-30T22:08:39.834Z,100.00
2024-03-30T22:11:11.282Z,100.00
2024-03-30T22:13:42.328Z,100.00
2024-03-30T22:16:13.787Z,100.00
2024-03-30T22:18:45.113Z,100.00
2024-03-30T22:21:16.576Z,100.00
2024-03-30T22:23:48.103Z,100.00
2024-03-30T22:26:19.595Z,100.00
2024-03-30T22:28:50.704Z,100.00
2024-03-30T22:31:22.062Z,100.00
2024-03-30T22:33:56.015Z,100.00
2024-03-30T22:36:27.328Z,100.00
2024-03-30T22:38:59.087Z,100.00
2024-03-30T22:41:30.337Z,100.00
2024-03-30T22:44:01.557Z,100.00
2024-03-30T22:46:32.860Z,100.00
2024-03-30T22:49:04.580Z,100.00
2024-03-30T22:51:35.716Z,100.00
2024-03-30T22:54:07.114Z,100.00
2024-03-30T22:56:38.320Z,100.00
2024-03-30T22:59:09.513Z,100.00
2024-03-30T23:01:41.950Z,100.00
2024-03-30T23:04:13.394Z,100.00
2024-03-30T23:06:44.638Z,100.00
2024-03-30T23:09:16.106Z,100.00
2024-03-30T23:11:47.272Z,100.00
2024-03-30T23:14:18.492Z,100.00
2024-03-30T23:16:50.307Z,100.00
2024-03-30T23:19:22.747Z,100.00
2024-03-30T23:21:55.907Z,100.00
2024-03-30T23:24:27.524Z,100.00
2024-03-30T23:26:58.677Z,100.00
2024-03-30T23:29:29.982Z,100.00
2024-03-30T23:32:01.242Z,100.00
2024-03-30T23:34:32.894Z,100.00
2024-03-30T23:37:04.300Z,100.00
2024-03-30T23:39:35.728Z,100.00
2024-03-30T23:42:07.545Z,100.00
2024-03-30T23:44:38.622Z,100.00
2024-03-30T23:47:09.862Z,100.00
2024-03-30T23:49:41.299Z,100.00
2024-03-30T23:52:12.457Z,100.00
2024-03-30T23:54:47.247Z,100.00
2024-03-30T23:57:18.620Z,100.00
2024-03-30T23:59:50.151Z,100.00
